Terminal Aerodrome Forecast
Issued by NWS

Home | Current Version | Previous Version | Text Only | Print | Product List | Glossary On
Versions: 1 2 3 4 5 6 7 8 9 10 11 12 13 14 15 16 17
969
FTUS43 KGRB 291129
TAFATW
TAF
KATW 291129Z 2912/3012 02007KT P6SM VCSH SCT010 OVC015
      TEMPO 2912/2915 4SM BR BKN008 BKN015
     FM291500 05008KT P6SM SCT020 BKN050
     FM291900 06010KT P6SM BKN060
     FM300300 04006KT P6SM SCT060 BKN120=

USA.gov is the U.S. government's official web portal to all federal, state and local government web resources and services.